sensor_id;sensor_type;location;lat;lon;timestamp;P1;durP1;ratioP1;P2;durP2;ratioP2
5662;SDS011;2854;42.692;23.364;2022-07-10T00:00:51;14.50;;;9.73;;
5662;SDS011;2854;42.692;23.364;2022-07-10T00:03:16;12.30;;;8.83;;
5662;SDS011;2854;42.692;23.364;2022-07-10T00:05:42;13.77;;;8.80;;
5662;SDS011;2854;42.692;23.364;2022-07-10T00:08:07;9.60;;;8.53;;
5662;SDS011;2854;42.692;23.364;2022-07-10T00:10:32;11.77;;;9.13;;
5662;SDS011;2854;42.692;23.364;2022-07-10T00:12:58;15.77;;;9.00;;
5662;SDS011;2854;42.692;23.364;2022-07-10T00:15:23;12.10;;;9.17;;
5662;SDS011;2854;42.692;23.364;2022-07-10T00:17:49;15.10;;;8.80;;
5662;SDS011;2854;42.692;23.364;2022-07-10T00:20:15;21.03;;;8.50;;
5662;SDS011;2854;42.692;23.364;2022-07-10T00:22:40;11.50;;;8.93;;
5662;SDS011;2854;42.692;23.364;2022-07-10T00:25:06;11.57;;;8.97;;
5662;SDS011;2854;42.692;23.364;2022-07-10T00:27:32;14.37;;;10.37;;
5662;SDS011;2854;42.692;23.364;2022-07-10T00:29:57;10.33;;;8.03;;
5662;SDS011;2854;42.692;23.364;2022-07-10T00:32:23;11.93;;;8.50;;
5662;SDS011;2854;42.692;23.364;2022-07-10T00:34:49;13.10;;;9.37;;
5662;SDS011;2854;42.692;23.364;2022-07-10T00:37:14;12.03;;;9.30;;
5662;SDS011;2854;42.692;23.364;2022-07-10T00:39:39;10.40;;;8.53;;
5662;SDS011;2854;42.692;23.364;2022-07-10T00:42:05;10.93;;;8.70;;
5662;SDS011;2854;42.692;23.364;2022-07-10T00:44:31;9.80;;;7.83;;
5662;SDS011;2854;42.692;23.364;2022-07-10T00:46:56;11.90;;;8.90;;
5662;SDS011;2854;42.692;23.364;2022-07-10T00:49:22;12.40;;;8.70;;
5662;SDS011;2854;42.692;23.364;2022-07-10T00:51:47;11.43;;;8.00;;
5662;SDS011;2854;42.692;23.364;2022-07-10T00:54:12;12.77;;;9.17;;
5662;SDS011;2854;42.692;23.364;2022-07-10T00:56:37;10.47;;;8.40;;
5662;SDS011;2854;42.692;23.364;2022-07-10T00:59:03;9.77;;;8.33;;
5662;SDS011;2854;42.692;23.364;2022-07-10T01:01:28;10.60;;;8.93;;
5662;SDS011;2854;42.692;23.364;2022-07-10T01:03:54;11.10;;;8.20;;
5662;SDS011;2854;42.692;23.364;2022-07-10T01:06:19;12.10;;;8.77;;
5662;SDS011;2854;42.692;23.364;2022-07-10T01:08:44;12.17;;;8.70;;
5662;SDS011;2854;42.692;23.364;2022-07-10T01:11:10;10.50;;;8.83;;
5662;SDS011;2854;42.692;23.364;2022-07-10T01:13:39;11.40;;;8.60;;
5662;SDS011;2854;42.692;23.364;2022-07-10T01:16:04;11.27;;;8.20;;
5662;SDS011;2854;42.692;23.364;2022-07-10T01:18:29;11.23;;;8.53;;
5662;SDS011;2854;42.692;23.364;2022-07-10T01:20:55;9.47;;;8.10;;
5662;SDS011;2854;42.692;23.364;2022-07-10T01:23:21;10.93;;;8.17;;
5662;SDS011;2854;42.692;23.364;2022-07-10T01:25:47;10.70;;;9.20;;
5662;SDS011;2854;42.692;23.364;2022-07-10T01:28:12;9.30;;;8.10;;
5662;SDS011;2854;42.692;23.364;2022-07-10T01:30:38;10.03;;;8.40;;
5662;SDS011;2854;42.692;23.364;2022-07-10T01:33:03;10.57;;;8.07;;
5662;SDS011;2854;42.692;23.364;2022-07-10T01:35:28;8.83;;;7.93;;
5662;SDS011;2854;42.692;23.364;2022-07-10T01:37:54;10.40;;;7.90;;
5662;SDS011;2854;42.692;23.364;2022-07-10T01:40:19;9.77;;;7.90;;
5662;SDS011;2854;42.692;23.364;2022-07-10T01:42:44;10.47;;;8.13;;
5662;SDS011;2854;42.692;23.364;2022-07-10T01:45:10;12.37;;;8.27;;
5662;SDS011;2854;42.692;23.364;2022-07-10T01:47:36;9.90;;;7.73;;
5662;SDS011;2854;42.692;23.364;2022-07-10T01:50:03;12.50;;;7.30;;
5662;SDS011;2854;42.692;23.364;2022-07-10T01:52:28;11.70;;;8.00;;
5662;SDS011;2854;42.692;23.364;2022-07-10T01:54:54;18.23;;;8.27;;
5662;SDS011;2854;42.692;23.364;2022-07-10T01:57:19;9.30;;;7.20;;
5662;SDS011;2854;42.692;23.364;2022-07-10T01:59:44;13.07;;;7.83;;
5662;SDS011;2854;42.692;23.364;2022-07-10T02:02:10;9.27;;;7.73;;
5662;SDS011;2854;42.692;23.364;2022-07-10T02:04:35;11.40;;;7.70;;
5662;SDS011;2854;42.692;23.364;2022-07-10T02:07:09;8.70;;;7.70;;
5662;SDS011;2854;42.692;23.364;2022-07-10T02:09:35;10.20;;;7.60;;
5662;SDS011;2854;42.692;23.364;2022-07-10T02:12:00;10.07;;;8.10;;
5662;SDS011;2854;42.692;23.364;2022-07-10T02:14:26;9.57;;;7.50;;
5662;SDS011;2854;42.692;23.364;2022-07-10T02:16:51;9.73;;;7.43;;
5662;SDS011;2854;42.692;23.364;2022-07-10T02:19:16;15.17;;;8.50;;
5662;SDS011;2854;42.692;23.364;2022-07-10T02:21:42;11.90;;;7.60;;
5662;SDS011;2854;42.692;23.364;2022-07-10T02:24:07;8.40;;;5.97;;
5662;SDS011;2854;42.692;23.364;2022-07-10T02:26:32;12.13;;;7.53;;
5662;SDS011;2854;42.692;23.364;2022-07-10T02:28:58;9.40;;;7.90;;
5662;SDS011;2854;42.692;23.364;2022-07-10T02:31:23;11.70;;;7.97;;
5662;SDS011;2854;42.692;23.364;2022-07-10T02:33:48;7.90;;;6.47;;
5662;SDS011;2854;42.692;23.364;2022-07-10T02:36:13;10.33;;;7.67;;
5662;SDS011;2854;42.692;23.364;2022-07-10T02:38:39;13.40;;;7.37;;
5662;SDS011;2854;42.692;23.364;2022-07-10T02:41:04;9.77;;;7.50;;
5662;SDS011;2854;42.692;23.364;2022-07-10T02:43:30;13.00;;;8.20;;
5662;SDS011;2854;42.692;23.364;2022-07-10T02:45:55;9.00;;;7.50;;
5662;SDS011;2854;42.692;23.364;2022-07-10T02:48:21;11.13;;;8.73;;
5662;SDS011;2854;42.692;23.364;2022-07-10T02:50:46;9.50;;;7.70;;
5662;SDS011;2854;42.692;23.364;2022-07-10T02:53:11;8.97;;;7.23;;
5662;SDS011;2854;42.692;23.364;2022-07-10T02:55:36;8.47;;;7.40;;
5662;SDS011;2854;42.692;23.364;2022-07-10T02:58:02;8.17;;;7.00;;
5662;SDS011;2854;42.692;23.364;2022-07-10T03:00:28;10.33;;;8.20;;
5662;SDS011;2854;42.692;23.364;2022-07-10T03:02:54;11.40;;;8.47;;
5662;SDS011;2854;42.692;23.364;2022-07-10T03:05:19;8.23;;;7.07;;
5662;SDS011;2854;42.692;23.364;2022-07-10T03:07:45;11.47;;;8.40;;
5662;SDS011;2854;42.692;23.364;2022-07-10T03:10:10;11.27;;;7.70;;
5662;SDS011;2854;42.692;23.364;2022-07-10T03:12:35;10.83;;;7.30;;
5662;SDS011;2854;42.692;23.364;2022-07-10T03:15:01;8.30;;;7.47;;
5662;SDS011;2854;42.692;23.364;2022-07-10T03:17:27;11.23;;;7.60;;
5662;SDS011;2854;42.692;23.364;2022-07-10T03:19:52;12.23;;;7.80;;
5662;SDS011;2854;42.692;23.364;2022-07-10T03:22:18;10.60;;;7.73;;
5662;SDS011;2854;42.692;23.364;2022-07-10T03:24:43;10.83;;;8.30;;
5662;SDS011;2854;42.692;23.364;2022-07-10T03:27:11;11.60;;;7.80;;
5662;SDS011;2854;42.692;23.364;2022-07-10T03:29:37;11.00;;;6.97;;
5662;SDS011;2854;42.692;23.364;2022-07-10T03:32:02;8.77;;;7.37;;
5662;SDS011;2854;42.692;23.364;2022-07-10T03:34:27;9.67;;;7.57;;
5662;SDS011;2854;42.692;23.364;2022-07-10T03:36:53;9.70;;;7.13;;
5662;SDS011;2854;42.692;23.364;2022-07-10T03:39:18;9.53;;;6.47;;
5662;SDS011;2854;42.692;23.364;2022-07-10T03:41:43;10.23;;;7.73;;
5662;SDS011;2854;42.692;23.364;2022-07-10T03:44:09;8.80;;;7.00;;
5662;SDS011;2854;42.692;23.364;2022-07-10T03:46:34;8.20;;;6.73;;
5662;SDS011;2854;42.692;23.364;2022-07-10T03:48:59;9.50;;;7.60;;
5662;SDS011;2854;42.692;23.364;2022-07-10T03:51:25;8.50;;;7.23;;
5662;SDS011;2854;42.692;23.364;2022-07-10T03:53:50;7.70;;;6.90;;
5662;SDS011;2854;42.692;23.364;2022-07-10T03:56:15;11.67;;;7.47;;
5662;SDS011;2854;42.692;23.364;2022-07-10T03:59:00;17.73;;;6.87;;
5662;SDS011;2854;42.692;23.364;2022-07-10T04:01:26;8.63;;;7.77;;
5662;SDS011;2854;42.692;23.364;2022-07-10T04:03:51;9.70;;;7.37;;
5662;SDS011;2854;42.692;23.364;2022-07-10T04:06:16;10.67;;;7.70;;
5662;SDS011;2854;42.692;23.364;2022-07-10T04:08:41;8.77;;;7.60;;
5662;SDS011;2854;42.692;23.364;2022-07-10T04:11:07;8.40;;;7.30;;
5662;SDS011;2854;42.692;23.364;2022-07-10T04:13:32;9.07;;;7.13;;
5662;SDS011;2854;42.692;23.364;2022-07-10T04:15:57;11.30;;;7.53;;
5662;SDS011;2854;42.692;23.364;2022-07-10T04:18:22;10.20;;;7.30;;
5662;SDS011;2854;42.692;23.364;2022-07-10T04:20:48;9.40;;;8.40;;
5662;SDS011;2854;42.692;23.364;2022-07-10T04:23:13;13.40;;;7.20;;
5662;SDS011;2854;42.692;23.364;2022-07-10T04:25:38;8.70;;;6.77;;
5662;SDS011;2854;42.692;23.364;2022-07-10T04:28:04;9.80;;;7.00;;
5662;SDS011;2854;42.692;23.364;2022-07-10T04:30:29;7.90;;;7.10;;
5662;SDS011;2854;42.692;23.364;2022-07-10T04:32:54;9.10;;;7.20;;
5662;SDS011;2854;42.692;23.364;2022-07-10T04:35:19;8.33;;;6.93;;
5662;SDS011;2854;42.692;23.364;2022-07-10T04:37:45;9.77;;;7.63;;
5662;SDS011;2854;42.692;23.364;2022-07-10T04:40:11;13.23;;;7.43;;
5662;SDS011;2854;42.692;23.364;2022-07-10T04:42:37;7.70;;;6.90;;
5662;SDS011;2854;42.692;23.364;2022-07-10T04:45:02;7.90;;;6.40;;
5662;SDS011;2854;42.692;23.364;2022-07-10T04:47:27;11.00;;;6.67;;
5662;SDS011;2854;42.692;23.364;2022-07-10T04:49:52;23.00;;;7.27;;
5662;SDS011;2854;42.692;23.364;2022-07-10T04:52:18;8.80;;;7.70;;
5662;SDS011;2854;42.692;23.364;2022-07-10T04:54:43;18.23;;;8.07;;
5662;SDS011;2854;42.692;23.364;2022-07-10T04:57:08;7.83;;;7.10;;
5662;SDS011;2854;42.692;23.364;2022-07-10T04:59:34;8.23;;;7.43;;
5662;SDS011;2854;42.692;23.364;2022-07-10T05:01:59;8.60;;;6.80;;
5662;SDS011;2854;42.692;23.364;2022-07-10T05:04:24;7.20;;;6.50;;
5662;SDS011;2854;42.692;23.364;2022-07-10T05:06:49;8.60;;;6.87;;
5662;SDS011;2854;42.692;23.364;2022-07-10T05:09:15;9.77;;;7.50;;
5662;SDS011;2854;42.692;23.364;2022-07-10T05:11:40;8.50;;;6.17;;
5662;SDS011;2854;42.692;23.364;2022-07-10T05:14:06;6.30;;;5.80;;
5662;SDS011;2854;42.692;23.364;2022-07-10T05:16:31;7.97;;;6.73;;
5662;SDS011;2854;42.692;23.364;2022-07-10T05:18:56;9.50;;;6.43;;
5662;SDS011;2854;42.692;23.364;2022-07-10T05:21:22;7.97;;;7.13;;
5662;SDS011;2854;42.692;23.364;2022-07-10T05:23:47;6.77;;;6.17;;
5662;SDS011;2854;42.692;23.364;2022-07-10T05:26:13;7.47;;;6.63;;
5662;SDS011;2854;42.692;23.364;2022-07-10T05:28:38;7.10;;;6.37;;
5662;SDS011;2854;42.692;23.364;2022-07-10T05:31:03;7.30;;;6.60;;
5662;SDS011;2854;42.692;23.364;2022-07-10T05:33:28;7.40;;;5.57;;
5662;SDS011;2854;42.692;23.364;2022-07-10T05:35:54;9.20;;;5.67;;
5662;SDS011;2854;42.692;23.364;2022-07-10T05:38:20;13.60;;;6.67;;
5662;SDS011;2854;42.692;23.364;2022-07-10T05:40:45;10.97;;;7.03;;
5662;SDS011;2854;42.692;23.364;2022-07-10T05:43:10;9.17;;;6.10;;
5662;SDS011;2854;42.692;23.364;2022-07-10T05:45:36;6.90;;;6.30;;
5662;SDS011;2854;42.692;23.364;2022-07-10T05:48:02;6.83;;;5.90;;
5662;SDS011;2854;42.692;23.364;2022-07-10T05:50:27;11.43;;;7.40;;
5662;SDS011;2854;42.692;23.364;2022-07-10T05:52:52;6.37;;;5.70;;
5662;SDS011;2854;42.692;23.364;2022-07-10T05:55:18;6.37;;;5.57;;
5662;SDS011;2854;42.692;23.364;2022-07-10T05:57:43;7.50;;;5.60;;
5662;SDS011;2854;42.692;23.364;2022-07-10T06:00:09;9.57;;;5.80;;
5662;SDS011;2854;42.692;23.364;2022-07-10T06:02:34;11.83;;;6.33;;
5662;SDS011;2854;42.692;23.364;2022-07-10T06:04:59;9.43;;;5.87;;
5662;SDS011;2854;42.692;23.364;2022-07-10T06:07:25;6.63;;;6.03;;
5662;SDS011;2854;42.692;23.364;2022-07-10T06:09:51;7.03;;;6.33;;
5662;SDS011;2854;42.692;23.364;2022-07-10T06:12:16;7.00;;;6.30;;
5662;SDS011;2854;42.692;23.364;2022-07-10T06:14:42;5.77;;;5.30;;
5662;SDS011;2854;42.692;23.364;2022-07-10T06:17:07;5.80;;;5.30;;
5662;SDS011;2854;42.692;23.364;2022-07-10T06:19:32;6.40;;;5.80;;
5662;SDS011;2854;42.692;23.364;2022-07-10T06:21:58;6.50;;;5.60;;
5662;SDS011;2854;42.692;23.364;2022-07-10T06:24:41;9.20;;;5.27;;
5662;SDS011;2854;42.692;23.364;2022-07-10T06:27:07;9.03;;;5.50;;
5662;SDS011;2854;42.692;23.364;2022-07-10T06:29:32;5.80;;;5.10;;
5662;SDS011;2854;42.692;23.364;2022-07-10T06:31:57;5.90;;;5.00;;
5662;SDS011;2854;42.692;23.364;2022-07-10T06:34:22;5.27;;;4.80;;
5662;SDS011;2854;42.692;23.364;2022-07-10T06:36:48;5.63;;;5.23;;
5662;SDS011;2854;42.692;23.364;2022-07-10T06:39:13;8.70;;;5.33;;
5662;SDS011;2854;42.692;23.364;2022-07-10T06:41:38;7.30;;;5.47;;
5662;SDS011;2854;42.692;23.364;2022-07-10T06:44:04;5.40;;;4.90;;
5662;SDS011;2854;42.692;23.364;2022-07-10T06:46:29;4.93;;;4.50;;
5662;SDS011;2854;42.692;23.364;2022-07-10T06:48:54;5.10;;;4.70;;
5662;SDS011;2854;42.692;23.364;2022-07-10T06:51:20;8.30;;;5.20;;
5662;SDS011;2854;42.692;23.364;2022-07-10T06:53:45;5.47;;;5.00;;
5662;SDS011;2854;42.692;23.364;2022-07-10T06:56:11;6.27;;;5.07;;
5662;SDS011;2854;42.692;23.364;2022-07-10T06:58:37;6.30;;;5.40;;
5662;SDS011;2854;42.692;23.364;2022-07-10T07:01:02;6.63;;;5.23;;
5662;SDS011;2854;42.692;23.364;2022-07-10T07:03:27;5.87;;;5.37;;
5662;SDS011;2854;42.692;23.364;2022-07-10T07:05:52;5.50;;;5.00;;
5662;SDS011;2854;42.692;23.364;2022-07-10T07:08:18;5.17;;;4.67;;
5662;SDS011;2854;42.692;23.364;2022-07-10T07:10:43;4.83;;;4.43;;
5662;SDS011;2854;42.692;23.364;2022-07-10T07:13:09;9.20;;;4.80;;
5662;SDS011;2854;42.692;23.364;2022-07-10T07:15:34;5.20;;;4.60;;
5662;SDS011;2854;42.692;23.364;2022-07-10T07:18:03;5.17;;;4.77;;
5662;SDS011;2854;42.692;23.364;2022-07-10T07:20:41;5.40;;;4.90;;
5662;SDS011;2854;42.692;23.364;2022-07-10T07:23:24;4.50;;;4.10;;
5662;SDS011;2854;42.692;23.364;2022-07-10T07:25:50;4.37;;;4.07;;
5662;SDS011;2854;42.692;23.364;2022-07-10T07:28:15;5.33;;;4.93;;
5662;SDS011;2854;42.692;23.364;2022-07-10T07:30:42;6.43;;;5.00;;
5662;SDS011;2854;42.692;23.364;2022-07-10T07:33:08;4.97;;;4.57;;
5662;SDS011;2854;42.692;23.364;2022-07-10T07:35:33;4.97;;;4.67;;
5662;SDS011;2854;42.692;23.364;2022-07-10T07:37:58;6.23;;;5.10;;
5662;SDS011;2854;42.692;23.364;2022-07-10T07:40:25;6.00;;;5.07;;
5662;SDS011;2854;42.692;23.364;2022-07-10T07:42:51;7.10;;;4.50;;
5662;SDS011;2854;42.692;23.364;2022-07-10T07:45:18;4.83;;;4.50;;
5662;SDS011;2854;42.692;23.364;2022-07-10T07:47:50;6.33;;;4.27;;
5662;SDS011;2854;42.692;23.364;2022-07-10T07:50:17;4.87;;;4.47;;
5662;SDS011;2854;42.692;23.364;2022-07-10T07:52:42;5.10;;;4.50;;
5662;SDS011;2854;42.692;23.364;2022-07-10T07:55:08;5.10;;;4.70;;
5662;SDS011;2854;42.692;23.364;2022-07-10T07:57:33;9.87;;;4.07;;
5662;SDS011;2854;42.692;23.364;2022-07-10T07:59:59;4.63;;;4.23;;
5662;SDS011;2854;42.692;23.364;2022-07-10T08:02:24;4.43;;;4.13;;
5662;SDS011;2854;42.692;23.364;2022-07-10T08:04:49;4.27;;;4.00;;
5662;SDS011;2854;42.692;23.364;2022-07-10T08:07:14;6.60;;;4.40;;
5662;SDS011;2854;42.692;23.364;2022-07-10T08:09:40;6.20;;;5.60;;
5662;SDS011;2854;42.692;23.364;2022-07-10T08:12:05;4.50;;;3.90;;
5662;SDS011;2854;42.692;23.364;2022-07-10T08:14:30;3.67;;;3.47;;
5662;SDS011;2854;42.692;23.364;2022-07-10T08:16:56;4.20;;;3.90;;
5662;SDS011;2854;42.692;23.364;2022-07-10T08:19:21;3.77;;;3.37;;
5662;SDS011;2854;42.692;23.364;2022-07-10T08:21:46;7.63;;;4.10;;
5662;SDS011;2854;42.692;23.364;2022-07-10T08:24:12;4.43;;;4.00;;
5662;SDS011;2854;42.692;23.364;2022-07-10T08:26:37;5.80;;;4.17;;
5662;SDS011;2854;42.692;23.364;2022-07-10T08:29:02;6.50;;;3.63;;
5662;SDS011;2854;42.692;23.364;2022-07-10T08:31:27;3.77;;;3.47;;
5662;SDS011;2854;42.692;23.364;2022-07-10T08:33:53;4.20;;;3.80;;
5662;SDS011;2854;42.692;23.364;2022-07-10T08:36:18;4.20;;;3.90;;
5662;SDS011;2854;42.692;23.364;2022-07-10T08:38:43;5.47;;;4.33;;
5662;SDS011;2854;42.692;23.364;2022-07-10T08:41:09;5.30;;;3.67;;
5662;SDS011;2854;42.692;23.364;2022-07-10T08:43:35;4.10;;;3.80;;
5662;SDS011;2854;42.692;23.364;2022-07-10T08:46:02;3.30;;;3.10;;
5662;SDS011;2854;42.692;23.364;2022-07-10T08:48:27;3.50;;;3.20;;
5662;SDS011;2854;42.692;23.364;2022-07-10T08:50:55;4.00;;;3.70;;
5662;SDS011;2854;42.692;23.364;2022-07-10T08:53:27;3.10;;;2.90;;
5662;SDS011;2854;42.692;23.364;2022-07-10T08:55:55;3.63;;;3.33;;
5662;SDS011;2854;42.692;23.364;2022-07-10T08:58:20;3.70;;;3.50;;
5662;SDS011;2854;42.692;23.364;2022-07-10T09:00:46;3.67;;;3.47;;
5662;SDS011;2854;42.692;23.364;2022-07-10T09:03:12;3.40;;;3.20;;
5662;SDS011;2854;42.692;23.364;2022-07-10T09:05:37;4.63;;;3.70;;
5662;SDS011;2854;42.692;23.364;2022-07-10T09:08:02;4.03;;;3.70;;
5662;SDS011;2854;42.692;23.364;2022-07-10T09:10:28;3.77;;;3.50;;
5662;SDS011;2854;42.692;23.364;2022-07-10T09:12:57;4.90;;;3.80;;
5662;SDS011;2854;42.692;23.364;2022-07-10T09:15:23;3.60;;;3.40;;
5662;SDS011;2854;42.692;23.364;2022-07-10T09:17:53;4.57;;;4.27;;
5662;SDS011;2854;42.692;23.364;2022-07-10T09:20:25;4.23;;;3.93;;
5662;SDS011;2854;42.692;23.364;2022-07-10T09:22:51;5.47;;;2.93;;
5662;SDS011;2854;42.692;23.364;2022-07-10T09:25:17;3.80;;;3.60;;
5662;SDS011;2854;42.692;23.364;2022-07-10T09:27:52;3.30;;;3.00;;
5662;SDS011;2854;42.692;23.364;2022-07-10T09:33:26;6.70;;;3.40;;
5662;SDS011;2854;42.692;23.364;2022-07-10T09:41:17;4.67;;;3.70;;
5662;SDS011;2854;42.692;23.364;2022-07-10T09:46:10;4.50;;;2.97;;
5662;SDS011;2854;42.692;23.364;2022-07-10T09:48:35;4.30;;;3.13;;
5662;SDS011;2854;42.692;23.364;2022-07-10T09:51:00;3.50;;;3.20;;
5662;SDS011;2854;42.692;23.364;2022-07-10T09:53:26;4.33;;;2.97;;
5662;SDS011;2854;42.692;23.364;2022-07-10T09:55:52;2.93;;;2.73;;
5662;SDS011;2854;42.692;23.364;2022-07-10T09:58:19;4.03;;;2.67;;
5662;SDS011;2854;42.692;23.364;2022-07-10T10:00:46;3.17;;;2.87;;
5662;SDS011;2854;42.692;23.364;2022-07-10T10:03:12;6.17;;;2.90;;
5662;SDS011;2854;42.692;23.364;2022-07-10T10:05:51;3.30;;;3.10;;
5662;SDS011;2854;42.692;23.364;2022-07-10T10:11:21;2.63;;;2.53;;
5662;SDS011;2854;42.692;23.364;2022-07-10T10:13:49;4.80;;;2.60;;
5662;SDS011;2854;42.692;23.364;2022-07-10T10:16:14;2.90;;;2.70;;
5662;SDS011;2854;42.692;23.364;2022-07-10T10:18:40;3.00;;;2.80;;
5662;SDS011;2854;42.692;23.364;2022-07-10T10:21:27;3.63;;;3.33;;
5662;SDS011;2854;42.692;23.364;2022-07-10T10:23:53;3.40;;;2.77;;
5662;SDS011;2854;42.692;23.364;2022-07-10T10:26:19;3.23;;;3.03;;
5662;SDS011;2854;42.692;23.364;2022-07-10T10:28:45;3.20;;;3.00;;
5662;SDS011;2854;42.692;23.364;2022-07-10T10:31:11;4.60;;;3.00;;
5662;SDS011;2854;42.692;23.364;2022-07-10T10:36:08;3.67;;;3.40;;
5662;SDS011;2854;42.692;23.364;2022-07-10T10:46:32;2.93;;;2.73;;
5662;SDS011;2854;42.692;23.364;2022-07-10T10:49:05;3.13;;;2.83;;
5662;SDS011;2854;42.692;23.364;2022-07-10T10:54:15;4.00;;;2.80;;
5662;SDS011;2854;42.692;23.364;2022-07-10T10:56:40;3.33;;;2.90;;
5662;SDS011;2854;42.692;23.364;2022-07-10T10:59:05;2.40;;;2.23;;
5662;SDS011;2854;42.692;23.364;2022-07-10T11:01:31;2.67;;;2.47;;
5662;SDS011;2854;42.692;23.364;2022-07-10T11:09:25;6.43;;;2.80;;
5662;SDS011;2854;42.692;23.364;2022-07-10T11:11:57;2.80;;;2.60;;
5662;SDS011;2854;42.692;23.364;2022-07-10T11:14:23;3.40;;;3.10;;
5662;SDS011;2854;42.692;23.364;2022-07-10T11:16:53;3.60;;;3.30;;
5662;SDS011;2854;42.692;23.364;2022-07-10T11:19:20;2.90;;;2.70;;
5662;SDS011;2854;42.692;23.364;2022-07-10T11:21:46;3.37;;;3.17;;
5662;SDS011;2854;42.692;23.364;2022-07-10T11:24:23;3.07;;;2.87;;
5662;SDS011;2854;42.692;23.364;2022-07-10T11:27:15;3.40;;;2.67;;
5662;SDS011;2854;42.692;23.364;2022-07-10T11:29:42;3.37;;;3.17;;
5662;SDS011;2854;42.692;23.364;2022-07-10T11:32:14;3.10;;;2.80;;
5662;SDS011;2854;42.692;23.364;2022-07-10T11:34:40;2.47;;;2.37;;
5662;SDS011;2854;42.692;23.364;2022-07-10T11:37:15;2.50;;;2.40;;
5662;SDS011;2854;42.692;23.364;2022-07-10T11:39:41;2.73;;;2.53;;
5662;SDS011;2854;42.692;23.364;2022-07-10T11:42:06;2.67;;;2.47;;
5662;SDS011;2854;42.692;23.364;2022-07-10T11:44:32;2.37;;;2.27;;
5662;SDS011;2854;42.692;23.364;2022-07-10T11:46:57;2.27;;;2.07;;
5662;SDS011;2854;42.692;23.364;2022-07-10T11:49:23;2.10;;;2.00;;
5662;SDS011;2854;42.692;23.364;2022-07-10T11:51:48;2.27;;;2.17;;
5662;SDS011;2854;42.692;23.364;2022-07-10T11:54:14;2.70;;;2.60;;
5662;SDS011;2854;42.692;23.364;2022-07-10T11:56:42;2.27;;;2.10;;
5662;SDS011;2854;42.692;23.364;2022-07-10T11:59:11;1.90;;;1.80;;
5662;SDS011;2854;42.692;23.364;2022-07-10T12:01:46;2.40;;;2.30;;
5662;SDS011;2854;42.692;23.364;2022-07-10T12:04:13;3.40;;;1.83;;
5662;SDS011;2854;42.692;23.364;2022-07-10T12:06:39;2.97;;;2.27;;
5662;SDS011;2854;42.692;23.364;2022-07-10T12:09:06;2.30;;;2.20;;
5662;SDS011;2854;42.692;23.364;2022-07-10T12:11:32;3.07;;;2.63;;
5662;SDS011;2854;42.692;23.364;2022-07-10T12:14:10;2.30;;;2.20;;
5662;SDS011;2854;42.692;23.364;2022-07-10T12:16:37;2.80;;;2.60;;
5662;SDS011;2854;42.692;23.364;2022-07-10T12:19:03;2.83;;;2.70;;
5662;SDS011;2854;42.692;23.364;2022-07-10T12:21:28;2.30;;;2.20;;
5662;SDS011;2854;42.692;23.364;2022-07-10T12:23:54;3.37;;;2.50;;
5662;SDS011;2854;42.692;23.364;2022-07-10T12:26:19;2.43;;;2.33;;
5662;SDS011;2854;42.692;23.364;2022-07-10T12:31:19;2.50;;;2.30;;
5662;SDS011;2854;42.692;23.364;2022-07-10T12:33:44;2.37;;;2.20;;
5662;SDS011;2854;42.692;23.364;2022-07-10T12:36:15;4.53;;;1.90;;
5662;SDS011;2854;42.692;23.364;2022-07-10T12:38:40;2.23;;;2.10;;
5662;SDS011;2854;42.692;23.364;2022-07-10T12:41:13;2.50;;;2.33;;
5662;SDS011;2854;42.692;23.364;2022-07-10T12:43:39;2.20;;;2.10;;
5662;SDS011;2854;42.692;23.364;2022-07-10T12:46:11;2.27;;;2.10;;
5662;SDS011;2854;42.692;23.364;2022-07-10T12:48:37;3.60;;;2.10;;
5662;SDS011;2854;42.692;23.364;2022-07-10T12:51:24;3.93;;;2.20;;
5662;SDS011;2854;42.692;23.364;2022-07-10T12:53:50;2.23;;;2.13;;
5662;SDS011;2854;42.692;23.364;2022-07-10T12:56:26;2.70;;;1.80;;
5662;SDS011;2854;42.692;23.364;2022-07-10T12:58:51;2.03;;;1.93;;
5662;SDS011;2854;42.692;23.364;2022-07-10T13:01:17;2.03;;;1.93;;
5662;SDS011;2854;42.692;23.364;2022-07-10T13:03:42;4.97;;;1.93;;
5662;SDS011;2854;42.692;23.364;2022-07-10T13:06:24;2.27;;;2.17;;
5662;SDS011;2854;42.692;23.364;2022-07-10T13:08:50;2.30;;;2.20;;
5662;SDS011;2854;42.692;23.364;2022-07-10T13:11:15;1.80;;;1.70;;
5662;SDS011;2854;42.692;23.364;2022-07-10T13:13:40;1.90;;;1.80;;
5662;SDS011;2854;42.692;23.364;2022-07-10T13:16:05;2.30;;;2.13;;
5662;SDS011;2854;42.692;23.364;2022-07-10T13:18:31;2.10;;;2.00;;
5662;SDS011;2854;42.692;23.364;2022-07-10T13:20:57;2.30;;;2.10;;
5662;SDS011;2854;42.692;23.364;2022-07-10T13:23:23;1.77;;;1.67;;
5662;SDS011;2854;42.692;23.364;2022-07-10T13:25:50;1.60;;;1.50;;
5662;SDS011;2854;42.692;23.364;2022-07-10T13:28:15;1.47;;;1.37;;
5662;SDS011;2854;42.692;23.364;2022-07-10T13:30:43;1.60;;;1.50;;
5662;SDS011;2854;42.692;23.364;2022-07-10T13:33:09;1.67;;;1.57;;
5662;SDS011;2854;42.692;23.364;2022-07-10T13:35:34;1.33;;;1.23;;
5662;SDS011;2854;42.692;23.364;2022-07-10T13:38:01;1.10;;;1.00;;
5662;SDS011;2854;42.692;23.364;2022-07-10T13:40:27;1.13;;;1.03;;
5662;SDS011;2854;42.692;23.364;2022-07-10T13:42:53;1.40;;;1.20;;
5662;SDS011;2854;42.692;23.364;2022-07-10T13:45:18;1.67;;;1.17;;
5662;SDS011;2854;42.692;23.364;2022-07-10T13:47:44;1.20;;;1.10;;
5662;SDS011;2854;42.692;23.364;2022-07-10T13:50:09;2.90;;;1.13;;
5662;SDS011;2854;42.692;23.364;2022-07-10T13:52:34;1.30;;;1.20;;
5662;SDS011;2854;42.692;23.364;2022-07-10T13:55:00;1.40;;;1.30;;
5662;SDS011;2854;42.692;23.364;2022-07-10T13:57:26;2.40;;;1.10;;
5662;SDS011;2854;42.692;23.364;2022-07-10T13:59:52;2.90;;;1.40;;
5662;SDS011;2854;42.692;23.364;2022-07-10T14:02:17;3.93;;;1.87;;
5662;SDS011;2854;42.692;23.364;2022-07-10T14:04:42;1.17;;;1.07;;
5662;SDS011;2854;42.692;23.364;2022-07-10T14:07:08;0.97;;;0.87;;
5662;SDS011;2854;42.692;23.364;2022-07-10T14:09:33;1.60;;;1.50;;
5662;SDS011;2854;42.692;23.364;2022-07-10T14:11:58;1.73;;;1.40;;
5662;SDS011;2854;42.692;23.364;2022-07-10T14:14:24;2.70;;;1.37;;
5662;SDS011;2854;42.692;23.364;2022-07-10T14:16:49;1.97;;;1.40;;
5662;SDS011;2854;42.692;23.364;2022-07-10T14:19:16;1.60;;;1.50;;
5662;SDS011;2854;42.692;23.364;2022-07-10T14:21:41;1.30;;;1.13;;
5662;SDS011;2854;42.692;23.364;2022-07-10T14:24:07;1.20;;;1.10;;
5662;SDS011;2854;42.692;23.364;2022-07-10T14:26:32;1.60;;;1.50;;
5662;SDS011;2854;42.692;23.364;2022-07-10T14:29:00;1.50;;;1.40;;
5662;SDS011;2854;42.692;23.364;2022-07-10T14:31:27;2.03;;;1.20;;
5662;SDS011;2854;42.692;23.364;2022-07-10T14:33:52;1.83;;;1.40;;
5662;SDS011;2854;42.692;23.364;2022-07-10T14:36:17;1.50;;;1.40;;
5662;SDS011;2854;42.692;23.364;2022-07-10T14:38:42;1.33;;;1.23;;
5662;SDS011;2854;42.692;23.364;2022-07-10T14:41:09;1.40;;;1.30;;
5662;SDS011;2854;42.692;23.364;2022-07-10T14:43:34;1.60;;;1.50;;
5662;SDS011;2854;42.692;23.364;2022-07-10T14:46:00;1.50;;;1.40;;
5662;SDS011;2854;42.692;23.364;2022-07-10T14:48:28;1.73;;;1.63;;
5662;SDS011;2854;42.692;23.364;2022-07-10T14:50:54;2.50;;;1.40;;
5662;SDS011;2854;42.692;23.364;2022-07-10T14:53:22;3.50;;;1.63;;
5662;SDS011;2854;42.692;23.364;2022-07-10T14:55:47;1.80;;;1.70;;
5662;SDS011;2854;42.692;23.364;2022-07-10T14:58:13;1.37;;;1.27;;
5662;SDS011;2854;42.692;23.364;2022-07-10T15:00:38;1.23;;;1.13;;
5662;SDS011;2854;42.692;23.364;2022-07-10T15:03:03;1.37;;;1.27;;
5662;SDS011;2854;42.692;23.364;2022-07-10T15:05:29;1.47;;;1.37;;
5662;SDS011;2854;42.692;23.364;2022-07-10T15:07:54;1.50;;;1.40;;
5662;SDS011;2854;42.692;23.364;2022-07-10T15:10:19;3.23;;;1.70;;
5662;SDS011;2854;42.692;23.364;2022-07-10T15:12:45;1.70;;;1.60;;
5662;SDS011;2854;42.692;23.364;2022-07-10T15:15:11;2.43;;;1.40;;
5662;SDS011;2854;42.692;23.364;2022-07-10T15:17:36;1.50;;;1.40;;
5662;SDS011;2854;42.692;23.364;2022-07-10T15:20:05;1.50;;;1.40;;
5662;SDS011;2854;42.692;23.364;2022-07-10T15:22:31;1.43;;;1.33;;
5662;SDS011;2854;42.692;23.364;2022-07-10T15:24:57;1.60;;;1.50;;
5662;SDS011;2854;42.692;23.364;2022-07-10T15:27:23;2.60;;;1.87;;